Time;durP1;ratioP1;P1;durP2;ratioP2;P2;SDS_P1;SDS_P2;PMS_P1;PMS_P2;Temp;Humidity;BMP_temperature;BMP_pressure;BME280_temperature;BME280_humidity;BME280_pressure;Samples;Min_cycle;Max_cycle;Signal;HPM_P1;HPM_P2
2023/06/22 00:00:56;;;;;;;14.15;12.25;;;18.70;99.90;;;;;;5010856;28;20494;-59
2023/06/22 00:03:24;;;;;;;16.65;12.80;;;18.70;99.90;;;;;;5013289;28;20041;-59
2023/06/22 00:05:50;;;;;;;15.10;12.32;;;18.70;99.90;;;;;;5018414;28;20037;-59
2023/06/22 00:08:17;;;;;;;18.02;13.88;;;18.60;99.90;;;;;;5019379;28;20049;-58
2023/06/22 00:10:44;;;;;;;15.02;12.98;;;18.60;99.90;;;;;;5017807;28;20041;-59
2023/06/22 00:13:11;;;;;;;17.73;14.05;;;18.50;99.90;;;;;;5015815;28;20037;-59
2023/06/22 00:15:38;;;;;;;15.27;11.95;;;18.50;99.90;;;;;;5014542;28;20045;-57
2023/06/22 00:18:05;;;;;;;20.08;13.38;;;18.40;99.90;;;;;;5016997;28;20042;-59
2023/06/22 00:20:32;;;;;;;20.02;14.43;;;18.40;99.90;;;;;;5020990;28;20050;-59
2023/06/22 00:23:00;;;;;;;17.05;13.50;;;18.40;99.90;;;;;;4997847;28;20730;-59
2023/06/22 00:25:26;;;;;;;16.70;12.65;;;18.30;99.90;;;;;;5011915;28;20053;-57
2023/06/22 00:27:51;;;;;;;15.32;11.93;;;18.30;99.90;;;;;;5014784;28;20054;-60
2023/06/22 00:30:19;;;;;;;14.02;12.13;;;18.30;99.90;;;;;;5014915;28;20053;-60
2023/06/22 00:32:46;;;;;;;15.52;11.95;;;18.30;99.90;;;;;;5014934;28;20037;-57
2023/06/22 00:35:12;;;;;;;18.60;11.73;;;18.30;99.90;;;;;;5002474;28;20037;-60
2023/06/22 00:37:42;;;;;;;18.15;14.00;;;18.30;99.90;;;;;;5006389;28;20175;-60
2023/06/22 00:40:11;;;;;;;16.80;13.55;;;18.30;99.90;;;;;;5025089;28;20053;-60
2023/06/22 00:42:38;;;;;;;20.63;15.35;;;18.20;99.90;;;;;;4993808;28;20049;-58
2023/06/22 00:45:06;;;;;;;16.98;14.15;;;18.10;99.90;;;;;;5027675;28;20397;-59
2023/06/22 00:47:33;;;;;;;16.50;13.05;;;18.00;99.90;;;;;;5024537;28;20359;-60
2023/06/22 00:50:00;;;;;;;16.58;14.18;;;18.00;99.90;;;;;;4998907;28;20058;-59
2023/06/22 00:52:29;;;;;;;15.63;13.93;;;17.90;99.90;;;;;;5007413;28;20045;-58
2023/06/22 00:54:57;;;;;;;13.90;12.40;;;17.90;99.90;;;;;;5025868;28;20037;-60
2023/06/22 00:57:27;;;;;;;13.23;11.82;;;17.80;99.90;;;;;;5024195;28;20033;-60
2023/06/22 00:59:54;;;;;;;12.23;10.93;;;17.70;99.90;;;;;;5020228;28;20046;-57
2023/06/22 01:02:20;;;;;;;11.40;10.30;;;17.70;99.90;;;;;;5022727;28;20037;-59
2023/06/22 01:04:46;;;;;;;10.32;9.20;;;17.70;99.90;;;;;;5000490;28;20882;-60
2023/06/22 01:07:18;;;;;;;11.25;9.73;;;17.60;99.90;;;;;;5015696;28;20049;-58
2023/06/22 01:10:08;;;;;;;8.73;7.90;;;17.60;99.90;;;;;;5014545;28;20042;-57
2023/06/22 01:12:40;;;;;;;9.30;7.72;;;17.50;99.90;;;;;;5009124;28;20058;-58
2023/06/22 01:15:13;;;;;;;8.87;7.97;;;17.40;99.90;;;;;;5013953;28;20129;-57
2023/06/22 01:17:42;;;;;;;8.93;8.00;;;17.30;99.90;;;;;;5011400;28;20338;-59
2023/06/22 01:20:09;;;;;;;8.68;7.88;;;17.30;99.90;;;;;;5017594;28;20046;-57
2023/06/22 01:23:11;;;;;;;8.35;7.55;;;17.30;99.90;;;;;;5011916;28;20045;-50
2023/06/22 01:26:02;;;;;;;7.72;7.03;;;17.20;99.90;;;;;;4973759;28;20088;-53
2023/06/22 01:28:42;;;;;;;11.55;9.10;;;17.20;99.90;;;;;;4988115;28;20053;-53
2023/06/22 01:31:20;;;;;;;10.57;9.57;;;17.10;99.90;;;;;;5008207;28;20065;-50
2023/06/22 01:33:55;;;;;;;11.30;9.68;;;17.10;99.90;;;;;;5011189;28;20041;-55
2023/06/22 01:36:22;;;;;;;13.52;11.93;;;17.00;99.90;;;;;;5017143;28;20132;-53
2023/06/22 01:38:49;;;;;;;13.75;12.27;;;17.00;99.90;;;;;;4995401;28;20038;-53
2023/06/22 01:41:16;;;;;;;18.00;13.75;;;17.00;99.90;;;;;;4996503;28;20184;-53
2023/06/22 01:43:43;;;;;;;13.93;12.55;;;17.00;99.90;;;;;;5014230;28;20045;-53
2023/06/22 01:46:11;;;;;;;9.43;8.50;;;17.00;99.90;;;;;;5018811;28;20498;-55
2023/06/22 01:48:38;;;;;;;8.38;7.57;;;17.00;99.90;;;;;;5016198;28;20540;-53
2023/06/22 01:51:04;;;;;;;11.05;8.70;;;17.00;99.90;;;;;;5001937;28;20044;-55
2023/06/22 01:53:29;;;;;;;13.68;12.20;;;17.00;99.90;;;;;;5014558;28;20041;-50
2023/06/22 01:55:56;;;;;;;15.68;12.98;;;16.90;99.90;;;;;;5021646;28;20156;-52
2023/06/22 01:58:25;;;;;;;15.80;13.48;;;16.90;99.90;;;;;;5016652;28;20958;-54
2023/06/22 02:01:12;;;;;;;17.08;13.77;;;16.90;99.90;;;;;;5016223;28;20038;-52
2023/06/22 02:03:43;;;;;;;16.75;13.82;;;16.90;99.90;;;;;;5002427;28;20050;-51
2023/06/22 02:06:17;;;;;;;18.73;15.90;;;16.90;99.90;;;;;;5018204;28;20037;-53
2023/06/22 02:08:55;;;;;;;18.83;16.40;;;16.90;99.90;;;;;;5001562;28;20456;-52
2023/06/22 02:11:22;;;;;;;21.35;18.42;;;16.90;99.90;;;;;;5014025;28;20050;-54
2023/06/22 02:13:49;;;;;;;20.90;18.02;;;16.90;99.90;;;;;;5015689;28;20073;-56
2023/06/22 02:16:17;;;;;;;18.02;16.08;;;16.90;99.90;;;;;;5011882;28;20052;-51
2023/06/22 02:18:51;;;;;;;18.88;15.52;;;16.90;99.90;;;;;;4997403;28;21499;-53
2023/06/22 02:21:17;;;;;;;19.63;16.38;;;16.90;99.90;;;;;;5002457;28;20042;-54
2023/06/22 02:23:43;;;;;;;21.35;17.40;;;16.80;99.90;;;;;;5017288;28;20076;-54
2023/06/22 02:26:09;;;;;;;20.02;15.55;;;16.70;99.90;;;;;;5014620;28;20053;-54
2023/06/22 02:28:35;;;;;;;19.85;16.23;;;16.70;99.90;;;;;;5017614;28;20049;-54
2023/06/22 02:31:01;;;;;;;19.85;16.98;;;16.70;99.90;;;;;;5017313;28;20050;-54
2023/06/22 02:33:27;;;;;;;19.55;17.45;;;16.70;99.90;;;;;;5018980;28;20041;-54
2023/06/22 02:35:53;;;;;;;20.73;16.50;;;16.70;99.90;;;;;;5014684;28;20065;-51
2023/06/22 02:38:19;;;;;;;19.77;15.10;;;16.70;99.90;;;;;;5016247;28;20532;-54
2023/06/22 02:40:46;;;;;;;15.40;13.80;;;16.70;99.90;;;;;;5016220;28;20099;-52
2023/06/22 02:43:11;;;;;;;17.90;15.77;;;16.70;99.90;;;;;;5009271;28;20042;-50
2023/06/22 02:45:37;;;;;;;24.92;19.10;;;16.70;99.90;;;;;;5018118;28;20035;-53
2023/06/22 02:48:03;;;;;;;22.23;19.02;;;16.70;99.90;;;;;;5017571;28;20056;-53
2023/06/22 02:50:29;;;;;;;21.85;18.00;;;16.70;99.90;;;;;;5016785;28;20054;-53
2023/06/22 02:52:55;;;;;;;22.40;17.50;;;16.60;99.90;;;;;;5014600;28;20055;-53
2023/06/22 02:55:21;;;;;;;21.73;17.63;;;16.60;99.90;;;;;;5004805;28;20052;-53
2023/06/22 02:57:47;;;;;;;18.90;14.55;;;16.60;99.90;;;;;;5019749;28;20042;-56
2023/06/22 03:00:17;;;;;;;15.02;13.43;;;16.60;99.90;;;;;;4998067;28;20077;-52
2023/06/22 03:02:44;;;;;;;17.90;14.48;;;16.60;99.90;;;;;;5018911;28;20037;-52
2023/06/22 03:05:13;;;;;;;16.77;15.02;;;16.50;99.90;;;;;;5018289;28;20037;-55
2023/06/22 03:07:42;;;;;;;27.00;19.45;;;16.50;99.90;;;;;;5019871;28;20116;-54
2023/06/22 03:10:12;;;;;;;21.38;16.88;;;16.50;99.90;;;;;;5020174;28;20402;-54
2023/06/22 03:12:39;;;;;;;22.25;17.20;;;16.40;99.90;;;;;;5019681;28;20050;-53
2023/06/22 03:15:07;;;;;;;19.17;16.58;;;16.40;99.90;;;;;;5019554;28;20037;-53
2023/06/22 03:17:34;;;;;;;21.48;18.10;;;16.50;99.90;;;;;;5015430;28;20049;-52
2023/06/22 03:20:00;;;;;;;26.73;20.85;;;16.40;99.90;;;;;;5020212;28;20038;-53
2023/06/22 03:22:26;;;;;;;19.52;17.05;;;16.40;99.90;;;;;;5017609;28;20050;-55
2023/06/22 03:24:51;;;;;;;21.98;17.25;;;16.40;99.90;;;;;;5019161;28;20037;-54
2023/06/22 03:27:18;;;;;;;24.80;18.75;;;16.40;99.90;;;;;;5021324;28;20112;-60
2023/06/22 03:29:44;;;;;;;18.02;15.35;;;16.40;99.90;;;;;;5022208;28;20144;-56
2023/06/22 03:32:10;;;;;;;14.52;12.10;;;16.40;99.90;;;;;;5019391;28;20500;-60
2023/06/22 03:34:36;;;;;;;15.13;12.65;;;16.30;99.90;;;;;;5015864;28;20037;-59
2023/06/22 03:37:02;;;;;;;12.70;11.40;;;16.30;99.90;;;;;;5023432;28;20055;-60
2023/06/22 03:39:28;;;;;;;14.27;12.02;;;16.20;99.90;;;;;;4994873;28;20045;-60
2023/06/22 03:41:54;;;;;;;16.23;14.52;;;16.20;99.90;;;;;;5021025;28;20042;-60
2023/06/22 03:44:20;;;;;;;15.50;13.82;;;16.20;99.90;;;;;;5021526;28;20041;-60
2023/06/22 03:46:46;;;;;;;17.42;14.00;;;16.20;99.90;;;;;;4992288;28;20037;-58
2023/06/22 03:49:11;;;;;;;16.00;13.20;;;16.20;99.90;;;;;;5023678;28;20029;-57
2023/06/22 03:51:37;;;;;;;17.23;12.77;;;16.20;99.90;;;;;;5021916;28;20073;-60
2023/06/22 03:54:03;;;;;;;13.85;11.20;;;16.20;99.90;;;;;;5020161;28;24219;-60
2023/06/22 03:56:28;;;;;;;16.15;12.30;;;16.20;99.90;;;;;;5025284;28;20045;-60
2023/06/22 03:58:54;;;;;;;15.55;13.20;;;16.20;99.90;;;;;;5020752;28;20414;-60
2023/06/22 04:01:20;;;;;;;17.05;14.52;;;16.20;99.90;;;;;;5018279;28;20069;-58
2023/06/22 04:03:48;;;;;;;22.27;17.33;;;16.20;99.90;;;;;;5020345;28;20033;-60
2023/06/22 04:06:14;;;;;;;24.17;19.83;;;16.20;99.90;;;;;;5024022;28;20073;-59
2023/06/22 04:08:40;;;;;;;30.92;22.60;;;16.20;99.90;;;;;;5007536;28;20069;-60
2023/06/22 04:11:06;;;;;;;34.05;24.02;;;16.30;99.90;;;;;;5010333;28;20042;-60
2023/06/22 04:13:32;;;;;;;33.65;24.95;;;16.30;99.90;;;;;;5023015;28;20099;-60
2023/06/22 04:15:58;;;;;;;30.35;23.63;;;16.30;99.90;;;;;;5020365;28;20045;-54
2023/06/22 04:18:23;;;;;;;30.25;23.42;;;16.30;99.90;;;;;;5025457;28;20129;-59
2023/06/22 04:20:49;;;;;;;35.88;25.63;;;16.30;99.90;;;;;;5023335;28;20139;-60
2023/06/22 04:23:15;;;;;;;25.27;21.48;;;16.30;99.90;;;;;;5019986;28;20101;-60
2023/06/22 04:25:40;;;;;;;32.42;24.95;;;16.40;99.90;;;;;;5006662;28;20164;-60
2023/06/22 04:28:12;;;;;;;33.97;24.10;;;16.40;99.90;;;;;;5024784;28;20050;-60
2023/06/22 04:30:46;;;;;;;36.55;25.42;;;16.40;99.90;;;;;;5023480;28;20417;-60
2023/06/22 04:33:15;;;;;;;37.47;26.77;;;16.40;99.90;;;;;;5000672;28;20046;-58
2023/06/22 04:35:41;;;;;;;30.60;24.27;;;16.40;99.90;;;;;;5025542;28;20045;-60
2023/06/22 04:38:07;;;;;;;31.08;24.35;;;16.50;99.90;;;;;;5024388;28;20042;-60
2023/06/22 04:40:33;;;;;;;33.08;23.90;;;16.50;99.90;;;;;;5022658;28;20081;-59
2023/06/22 04:43:02;;;;;;;36.08;26.88;;;16.50;99.90;;;;;;5026291;28;20049;-58
2023/06/22 04:45:29;;;;;;;41.08;28.75;;;16.60;99.90;;;;;;5023310;28;20037;-59
2023/06/22 04:47:55;;;;;;;36.97;27.77;;;16.60;99.90;;;;;;5022420;28;20040;-60
2023/06/22 04:50:21;;;;;;;31.05;25.52;;;16.70;99.90;;;;;;5024419;28;20061;-60
2023/06/22 04:52:47;;;;;;;35.08;26.75;;;16.80;99.90;;;;;;5024613;28;20037;-60
2023/06/22 04:55:19;;;;;;;33.50;25.17;;;16.80;99.90;;;;;;5011072;28;20045;-57
2023/06/22 04:57:48;;;;;;;36.60;27.08;;;16.80;99.90;;;;;;5023810;28;20045;-57
2023/06/22 05:00:22;;;;;;;38.80;28.80;;;16.80;99.90;;;;;;5022603;28;20077;-59
2023/06/22 05:02:49;;;;;;;40.47;29.25;;;16.80;99.90;;;;;;5022833;28;20040;-60
2023/06/22 05:05:16;;;;;;;37.85;29.75;;;16.80;99.90;;;;;;5018646;28;20042;-58
2023/06/22 05:07:48;;;;;;;44.90;30.95;;;16.80;99.90;;;;;;5020259;28;20037;-60
2023/06/22 05:10:14;;;;;;;47.38;34.38;;;16.80;99.90;;;;;;5023826;28;20561;-60
2023/06/22 05:12:41;;;;;;;51.28;36.95;;;16.80;99.90;;;;;;5010456;28;20038;-60
2023/06/22 05:15:10;;;;;;;54.15;39.40;;;16.90;99.90;;;;;;5021212;28;20060;-58
2023/06/22 05:17:42;;;;;;;51.83;37.80;;;17.00;99.90;;;;;;5009356;28;20042;-59
2023/06/22 05:20:09;;;;;;;53.70;40.88;;;17.00;99.90;;;;;;5016652;28;20199;-58
2023/06/22 05:22:35;;;;;;;59.80;42.20;;;17.10;99.90;;;;;;5019265;28;20057;-59
2023/06/22 05:25:01;;;;;;;55.88;39.85;;;17.20;99.90;;;;;;5006068;28;20389;-57
2023/06/22 05:27:26;;;;;;;54.58;40.35;;;17.30;99.90;;;;;;5019459;28;20053;-59
2023/06/22 05:29:52;;;;;;;52.88;38.65;;;17.30;99.90;;;;;;5019772;28;20494;-60
2023/06/22 05:32:18;;;;;;;50.20;38.72;;;17.40;99.90;;;;;;5010694;28;20041;-59
2023/06/22 05:34:44;;;;;;;53.15;39.08;;;17.50;99.90;;;;;;5006935;28;20080;-59
2023/06/22 05:37:10;;;;;;;51.97;38.78;;;17.50;99.90;;;;;;5026227;28;20030;-60
2023/06/22 05:39:39;;;;;;;50.75;40.05;;;17.60;99.90;;;;;;5005152;28;20042;-60
2023/06/22 05:42:06;;;;;;;48.42;37.72;;;17.70;99.90;;;;;;4999837;28;20053;-56
2023/06/22 05:44:33;;;;;;;49.67;38.95;;;17.80;99.90;;;;;;5017277;28;20037;-60
2023/06/22 05:46:59;;;;;;;50.88;38.17;;;17.80;99.90;;;;;;4996457;28;20053;-60
2023/06/22 05:49:29;;;;;;;46.05;37.00;;;17.90;99.90;;;;;;5018331;28;20093;-56
2023/06/22 05:51:56;;;;;;;53.00;40.45;;;18.00;99.90;;;;;;5017751;28;20037;-60
2023/06/22 05:54:22;;;;;;;56.58;40.92;;;18.10;99.90;;;;;;5012483;28;20434;-60
2023/06/22 05:56:48;;;;;;;51.88;39.60;;;18.20;99.90;;;;;;5017516;28;20147;-60
2023/06/22 05:59:13;;;;;;;49.92;39.03;;;18.30;99.90;;;;;;5012010;28;20578;-57
2023/06/22 06:01:40;;;;;;;50.40;39.15;;;18.30;99.90;;;;;;5016960;28;20632;-60
2023/06/22 06:04:07;;;;;;;54.63;39.50;;;18.40;99.90;;;;;;5016133;28;20073;-58
2023/06/22 06:06:34;;;;;;;48.78;36.83;;;18.40;99.90;;;;;;5022127;28;20169;-59
2023/06/22 06:09:00;;;;;;;49.35;37.97;;;18.50;99.90;;;;;;5017858;28;20130;-59
2023/06/22 06:11:26;;;;;;;52.78;39.78;;;18.60;99.90;;;;;;4997173;28;20147;-57
2023/06/22 06:13:52;;;;;;;53.53;41.00;;;18.70;99.90;;;;;;5008143;28;21155;-59
2023/06/22 06:16:18;;;;;;;53.88;40.22;;;18.70;99.90;;;;;;5008296;28;20488;-71
2023/06/22 06:18:44;;;;;;;50.65;41.28;;;18.90;99.90;;;;;;4979682;28;20053;-71
2023/06/22 06:21:09;;;;;;;49.72;39.75;;;19.00;99.90;;;;;;4972100;28;20115;-71
2023/06/22 06:23:35;;;;;;;45.03;34.10;;;19.10;99.90;;;;;;4977424;28;20199;-71
2023/06/22 06:26:01;;;;;;;41.80;33.83;;;19.30;99.90;;;;;;4981960;28;20054;-71
2023/06/22 06:28:28;;;;;;;40.05;31.30;;;19.40;99.90;;;;;;4976255;28;20053;-68
2023/06/22 06:30:53;;;;;;;41.33;30.48;;;19.50;99.90;;;;;;4991627;28;20100;-69
2023/06/22 06:33:20;;;;;;;37.20;28.40;;;19.60;99.90;;;;;;4996701;28;20073;-70
2023/06/22 06:35:46;;;;;;;37.40;27.00;;;19.70;99.90;;;;;;4994381;28;20690;-71
2023/06/22 06:38:12;;;;;;;34.42;27.90;;;19.80;99.90;;;;;;4996053;28;20056;-68
2023/06/22 06:40:38;;;;;;;34.75;28.35;;;19.90;99.90;;;;;;4968157;28;20046;-68
2023/06/22 06:43:03;;;;;;;36.95;26.52;;;20.00;99.90;;;;;;4978838;28;20060;-70
2023/06/22 06:45:30;;;;;;;33.88;26.60;;;20.10;99.90;;;;;;4979359;28;20072;-70
2023/06/22 06:47:56;;;;;;;32.75;26.52;;;20.20;99.90;;;;;;4972905;28;20037;-72
2023/06/22 06:50:22;;;;;;;36.25;27.98;;;20.30;99.90;;;;;;4995475;28;20050;-72
2023/06/22 06:52:50;;;;;;;36.83;27.77;;;20.50;99.90;;;;;;4994853;28;20458;-72
2023/06/22 06:55:15;;;;;;;31.75;25.85;;;20.60;99.90;;;;;;4993315;28;20046;-72
2023/06/22 06:57:42;;;;;;;32.22;26.17;;;20.70;99.90;;;;;;4995098;28;20045;-70
2023/06/22 07:00:11;;;;;;;33.65;25.27;;;20.80;99.90;;;;;;4980191;28;20073;-68
2023/06/22 07:02:42;;;;;;;26.63;21.90;;;20.90;99.90;;;;;;4992501;28;20091;-69
2023/06/22 07:05:11;;;;;;;32.55;23.45;;;20.90;99.90;;;;;;4988287;28;20041;-73
2023/06/22 07:07:38;;;;;;;33.33;25.45;;;21.10;99.90;;;;;;4994173;28;20081;-68
2023/06/22 07:10:07;;;;;;;30.17;24.98;;;21.20;99.90;;;;;;5003027;28;20052;-72
2023/06/22 07:12:34;;;;;;;29.48;23.27;;;21.30;99.90;;;;;;5002101;28;20049;-72
2023/06/22 07:15:08;;;;;;;31.42;20.92;;;21.30;99.90;;;;;;5000680;28;20560;-73
2023/06/22 07:17:34;;;;;;;26.60;20.38;;;21.40;99.90;;;;;;4990851;28;20045;-73
2023/06/22 07:20:01;;;;;;;21.73;17.05;;;21.50;99.90;;;;;;5000577;28;20042;-72
2023/06/22 07:22:26;;;;;;;22.83;15.93;;;21.60;99.90;;;;;;4984143;28;20046;-72
2023/06/22 07:24:52;;;;;;;20.48;16.00;;;21.70;99.90;;;;;;4998769;28;20044;-73
2023/06/22 07:27:21;;;;;;;19.80;15.93;;;21.70;99.90;;;;;;5002582;28;20657;-73
2023/06/22 07:29:46;;;;;;;19.20;15.60;;;21.80;99.90;;;;;;4993242;28;20583;-72
2023/06/22 07:32:12;;;;;;;19.77;16.55;;;21.90;99.90;;;;;;5001047;28;20124;-72
2023/06/22 07:34:38;;;;;;;18.90;14.52;;;22.00;99.90;;;;;;5003257;28;20132;-73
2023/06/22 07:37:04;;;;;;;19.83;15.40;;;22.10;99.90;;;;;;4992457;28;20097;-72
2023/06/22 07:39:30;;;;;;;17.15;14.93;;;22.20;99.90;;;;;;4984357;28;20041;-72
2023/06/22 07:41:56;;;;;;;20.00;15.10;;;22.30;99.90;;;;;;4969991;28;20046;-73
2023/06/22 07:44:22;;;;;;;18.60;13.60;;;22.40;99.90;;;;;;4998048;28;20152;-69
2023/06/22 07:46:48;;;;;;;17.48;13.93;;;22.40;99.90;;;;;;4995876;28;20485;-68
2023/06/22 07:49:13;;;;;;;18.20;14.57;;;22.60;99.90;;;;;;4990012;28;20144;-74
2023/06/22 07:51:39;;;;;;;14.65;12.32;;;22.70;99.90;;;;;;5001483;28;20073;-71
2023/06/22 07:54:05;;;;;;;14.65;11.32;;;22.70;99.90;;;;;;5001371;28;20052;-73
2023/06/22 07:56:30;;;;;;;12.27;8.60;;;22.80;99.90;;;;;;5001054;28;20124;-70
2023/06/22 07:58:58;;;;;;;9.38;7.65;;;22.80;99.90;;;;;;4984604;28;20047;-73
2023/06/22 08:01:24;;;;;;;9.68;7.10;;;22.80;99.90;;;;;;5002610;28;20498;-74
2023/06/22 08:03:51;;;;;;;10.32;7.88;;;22.90;99.90;;;;;;5000048;28;20030;-74
2023/06/22 08:06:16;;;;;;;11.75;9.38;;;23.00;99.90;;;;;;4999952;28;20033;-74
2023/06/22 08:08:42;;;;;;;15.13;8.18;;;23.10;99.90;;;;;;4983601;28;20033;-74
2023/06/22 08:11:09;;;;;;;11.38;7.95;;;23.30;99.90;;;;;;5005817;28;20053;-73
2023/06/22 08:13:34;;;;;;;11.10;8.55;;;23.30;99.90;;;;;;4985910;28;20410;-74
2023/06/22 08:16:00;;;;;;;9.55;8.55;;;23.40;99.90;;;;;;4998787;28;20049;-74
2023/06/22 08:18:26;;;;;;;11.43;8.90;;;23.50;99.90;;;;;;4981655;28;20148;-74
2023/06/22 08:20:52;;;;;;;9.63;7.80;;;23.60;99.90;;;;;;5000519;28;20049;-74
2023/06/22 08:23:18;;;;;;;11.45;8.00;;;23.60;99.90;;;;;;4997257;28;20045;-75
2023/06/22 08:25:44;;;;;;;11.02;8.07;;;23.80;99.90;;;;;;5004787;28;20374;-74
2023/06/22 08:28:09;;;;;;;12.05;8.75;;;23.80;99.90;;;;;;4996853;28;20469;-68
2023/06/22 08:30:35;;;;;;;12.60;9.40;;;23.80;99.90;;;;;;4969238;28;20080;-75
2023/06/22 08:33:01;;;;;;;13.98;8.63;;;23.90;99.90;;;;;;4989647;28;20128;-75
2023/06/22 08:35:27;;;;;;;9.68;6.88;;;24.00;99.90;;;;;;4966186;28;20905;-75
2023/06/22 08:37:55;;;;;;;9.95;7.22;;;24.10;99.90;;;;;;4995802;28;20162;-75
2023/06/22 08:40:21;;;;;;;9.20;6.75;;;24.20;99.80;;;;;;4995645;28;20048;-74
2023/06/22 08:42:47;;;;;;;8.20;6.30;;;24.30;99.60;;;;;;4992823;28;20055;-73
2023/06/22 08:45:14;;;;;;;8.07;6.35;;;24.50;99.40;;;;;;4993995;28;20052;-76
2023/06/22 08:47:41;;;;;;;9.20;7.15;;;24.60;98.90;;;;;;4994482;28;20382;-75
2023/06/22 08:50:10;;;;;;;12.77;6.82;;;24.70;98.60;;;;;;4970495;28;20057;-74
2023/06/22 08:52:37;;;;;;;8.63;6.72;;;24.80;97.80;;;;;;4978630;28;20038;-76
2023/06/22 08:55:04;;;;;;;7.72;5.97;;;24.80;97.20;;;;;;4996351;28;20111;-74
2023/06/22 08:57:30;;;;;;;8.77;6.45;;;24.90;97.10;;;;;;4980985;28;20116;-74
2023/06/22 08:59:58;;;;;;;6.72;4.90;;;25.00;96.40;;;;;;4996328;28;20052;-75
2023/06/22 09:02:31;;;;;;;8.98;5.03;;;25.10;95.60;;;;;;5000930;28;20038;-75
2023/06/22 09:04:57;;;;;;;11.27;6.30;;;25.20;95.30;;;;;;4981280;28;20180;-74
2023/06/22 09:07:24;;;;;;;8.57;6.40;;;25.20;95.30;;;;;;5014753;28;20048;-75
2023/06/22 09:09:50;;;;;;;8.05;6.00;;;25.30;95.00;;;;;;4983382;28;20119;-74
2023/06/22 09:12:19;;;;;;;8.48;6.75;;;25.50;94.80;;;;;;4979835;28;20046;-74
2023/06/22 09:14:45;;;;;;;9.55;6.05;;;25.50;94.30;;;;;;4996625;28;20049;-75
2023/06/22 09:17:12;;;;;;;7.95;5.60;;;25.60;94.10;;;;;;5000828;28;21225;-70
2023/06/22 09:19:38;;;;;;;8.23;5.53;;;25.70;93.60;;;;;;5000227;28;20060;-72
2023/06/22 09:22:05;;;;;;;7.43;5.45;;;25.80;93.20;;;;;;4999741;28;20041;-73
2023/06/22 09:24:31;;;;;;;6.50;5.47;;;25.90;92.80;;;;;;5001936;28;20037;-73
2023/06/22 09:26:57;;;;;;;7.53;5.80;;;25.90;92.70;;;;;;5001794;28;20118;-72
2023/06/22 09:29:24;;;;;;;6.95;5.43;;;26.10;92.50;;;;;;5016366;28;20128;-72
2023/06/22 09:31:49;;;;;;;7.22;5.93;;;26.30;92.50;;;;;;5003672;28;20125;-72
2023/06/22 09:34:20;;;;;;;6.72;5.30;;;26.50;91.90;;;;;;4998903;28;20048;-70
2023/06/22 09:36:48;;;;;;;9.68;6.45;;;26.60;91.30;;;;;;4999782;28;20069;-72
2023/06/22 09:39:14;;;;;;;12.07;6.55;;;26.60;90.50;;;;;;5003593;28;20059;-71
2023/06/22 09:41:40;;;;;;;9.63;7.45;;;26.50;90.30;;;;;;5001665;28;21361;-71
2023/06/22 09:44:06;;;;;;;7.88;6.10;;;26.50;89.90;;;;;;4986899;28;20151;-71
2023/06/22 09:46:31;;;;;;;8.07;5.43;;;26.50;90.00;;;;;;5004671;28;20042;-71
2023/06/22 09:48:57;;;;;;;8.48;5.80;;;26.50;90.20;;;;;;4992449;28;20029;-71
2023/06/22 09:51:23;;;;;;;8.35;6.25;;;26.70;90.30;;;;;;4987703;28;20996;-71
2023/06/22 09:53:55;;;;;;;8.77;6.50;;;26.80;90.00;;;;;;4986737;28;20054;-68
2023/06/22 09:56:21;;;;;;;7.65;5.40;;;27.00;89.20;;;;;;5001916;28;20049;-68
2023/06/22 09:58:47;;;;;;;14.93;6.97;;;27.10;88.90;;;;;;4996881;28;20049;-71
2023/06/22 10:01:16;;;;;;;10.65;6.10;;;27.10;87.00;;;;;;5001808;28;20048;-70
2023/06/22 10:03:42;;;;;;;11.38;6.65;;;27.10;86.30;;;;;;5001919;28;20080;-72
2023/06/22 10:06:08;;;;;;;10.80;6.82;;;27.20;86.40;;;;;;5003616;28;20072;-71
2023/06/22 10:08:34;;;;;;;8.70;6.35;;;27.30;85.90;;;;;;5003625;28;20199;-71
2023/06/22 10:11:00;;;;;;;7.32;5.50;;;27.30;85.00;;;;;;5001932;28;20044;-67
2023/06/22 10:13:26;;;;;;;10.13;5.95;;;27.40;84.70;;;;;;5011486;28;20045;-71
2023/06/22 10:15:52;;;;;;;10.32;6.03;;;27.50;84.80;;;;;;5008145;28;20532;-72
2023/06/22 10:18:18;;;;;;;11.32;6.30;;;27.40;84.70;;;;;;5012188;28;20049;-72
2023/06/22 10:20:51;;;;;;;7.25;6.32;;;27.40;84.30;;;;;;5009676;28;20048;-71
2023/06/22 10:23:17;;;;;;;8.90;6.93;;;27.60;84.10;;;;;;5015197;28;20049;-71
2023/06/22 10:25:43;;;;;;;10.27;6.68;;;27.70;83.50;;;;;;5009454;28;20068;-72
2023/06/22 10:28:08;;;;;;;10.05;6.78;;;27.80;83.20;;;;;;5008095;28;20073;-68
2023/06/22 10:30:34;;;;;;;8.40;6.32;;;27.90;82.80;;;;;;5008861;28;20041;-71
2023/06/22 10:33:00;;;;;;;8.80;6.45;;;28.00;82.10;;;;;;5009738;28;20504;-71
2023/06/22 10:35:26;;;;;;;6.95;5.70;;;28.10;81.90;;;;;;5010123;28;20037;-67
2023/06/22 10:37:52;;;;;;;9.77;6.55;;;28.10;81.50;;;;;;5028742;28;20072;-68
2023/06/22 10:40:18;;;;;;;8.50;6.70;;;28.00;80.60;;;;;;5009434;28;20041;-72
2023/06/22 10:42:44;;;;;;;9.05;6.65;;;27.80;80.70;;;;;;5009404;28;20037;-71
2023/06/22 10:45:10;;;;;;;9.27;7.05;;;27.80;81.30;;;;;;5005093;28;20048;-71
2023/06/22 10:47:36;;;;;;;11.38;7.78;;;27.90;80.90;;;;;;5006556;28;21078;-71
2023/06/22 10:50:04;;;;;;;10.43;6.55;;;27.80;80.40;;;;;;5009137;28;20056;-71
2023/06/22 10:52:30;;;;;;;7.93;6.10;;;27.80;80.00;;;;;;5003846;28;20065;-72
2023/06/22 10:54:55;;;;;;;9.93;7.40;;;27.90;80.20;;;;;;5002408;28;20049;-72
2023/06/22 10:57:22;;;;;;;7.63;6.55;;;28.10;80.00;;;;;;5003369;28;20046;-72
2023/06/22 10:59:47;;;;;;;9.30;7.03;;;28.30;79.70;;;;;;4979235;28;20083;-73
2023/06/22 11:02:13;;;;;;;9.18;7.20;;;28.40;79.50;;;;;;5003110;28;20478;-71
2023/06/22 11:04:39;;;;;;;9.80;6.53;;;28.50;78.50;;;;;;4987001;28;20064;-69
2023/06/22 11:07:05;;;;;;;8.52;6.68;;;28.50;77.30;;;;;;5005197;28;20037;-72
2023/06/22 11:09:31;;;;;;;9.73;6.63;;;28.50;77.80;;;;;;5006699;28;20049;-73
2023/06/22 11:11:58;;;;;;;9.05;6.10;;;28.60;78.20;;;;;;5001211;28;20111;-70
2023/06/22 11:14:25;;;;;;;6.93;5.63;;;28.80;78.00;;;;;;5001674;28;20520;-69
2023/06/22 11:16:51;;;;;;;9.52;6.13;;;29.10;77.40;;;;;;5006260;28;20135;-71
2023/06/22 11:19:17;;;;;;;7.80;5.60;;;29.10;76.60;;;;;;5004856;28;20080;-72
2023/06/22 11:21:43;;;;;;;9.63;5.40;;;29.10;75.40;;;;;;5004529;28;20052;-72
2023/06/22 11:24:08;;;;;;;7.95;6.35;;;29.10;75.30;;;;;;5001454;28;20461;-72
2023/06/22 11:26:35;;;;;;;8.40;6.53;;;29.00;74.20;;;;;;5006626;28;20037;-73
2023/06/22 11:29:00;;;;;;;7.50;6.22;;;29.10;74.20;;;;;;5005808;28;20674;-71
2023/06/22 11:31:26;;;;;;;10.77;6.10;;;29.10;73.90;;;;;;4986934;28;20076;-72
2023/06/22 11:33:52;;;;;;;8.85;6.10;;;29.00;74.30;;;;;;4991883;28;20045;-72
2023/06/22 11:36:18;;;;;;;9.95;7.07;;;29.10;74.50;;;;;;5004942;28;20041;-73
2023/06/22 11:38:44;;;;;;;8.52;6.63;;;29.00;73.20;;;;;;4988880;28;20054;-73
2023/06/22 11:41:10;;;;;;;15.15;7.07;;;28.90;74.30;;;;;;5005908;28;20049;-73
2023/06/22 11:43:37;;;;;;;9.65;6.80;;;28.80;74.10;;;;;;4985017;28;20549;-71
2023/06/22 11:46:04;;;;;;;10.43;7.45;;;28.60;74.70;;;;;;5003321;28;20092;-72
2023/06/22 11:48:30;;;;;;;8.18;6.43;;;28.50;74.80;;;;;;4983227;28;20045;-71
2023/06/22 11:50:56;;;;;;;9.82;6.82;;;28.30;75.00;;;;;;5004261;28;20246;-71
2023/06/22 11:53:24;;;;;;;8.45;6.18;;;28.30;75.30;;;;;;4989673;28;20076;-73
2023/06/22 11:55:50;;;;;;;9.85;6.05;;;28.30;76.40;;;;;;5000882;28;20413;-71
2023/06/22 11:58:16;;;;;;;9.10;6.30;;;28.30;76.10;;;;;;5001818;28;20088;-72
2023/06/22 12:00:42;;;;;;;7.28;6.07;;;28.30;75.80;;;;;;5001799;28;20065;-72
2023/06/22 12:03:09;;;;;;;9.27;5.82;;;28.30;75.40;;;;;;5005088;28;20038;-72
2023/06/22 12:05:34;;;;;;;7.22;5.28;;;28.20;75.10;;;;;;5003062;28;20121;-72
2023/06/22 12:08:00;;;;;;;7.25;5.47;;;28.10;75.40;;;;;;5002312;28;20105;-72
2023/06/22 12:10:30;;;;;;;6.72;5.38;;;28.10;75.40;;;;;;5002088;28;20045;-71
2023/06/22 12:12:57;;;;;;;10.63;5.40;;;28.00;75.20;;;;;;4982430;28;20038;-72
2023/06/22 12:15:23;;;;;;;6.05;5.43;;;28.00;75.50;;;;;;4947982;28;20061;-69
2023/06/22 12:17:49;;;;;;;9.20;5.60;;;28.00;75.30;;;;;;4994953;28;20397;-73
2023/06/22 12:20:15;;;;;;;8.20;5.53;;;28.00;75.20;;;;;;4993972;28;20057;-70
2023/06/22 12:22:41;;;;;;;6.43;4.90;;;27.90;75.30;;;;;;4973577;28;20073;-70
2023/06/22 12:25:10;;;;;;;6.38;5.07;;;27.90;75.30;;;;;;4990238;28;20394;-73
2023/06/22 12:27:36;;;;;;;5.65;4.68;;;27.80;75.40;;;;;;4996857;28;20498;-73
2023/06/22 12:30:03;;;;;;;6.45;4.63;;;27.70;75.20;;;;;;5019949;28;21130;-74
2023/06/22 12:32:29;;;;;;;6.80;4.43;;;27.70;75.20;;;;;;5006454;28;20045;-68